sensor_id;sensor_type;location;lat;lon;timestamp;temperature;humidity
13697;DHT22;6920;50.080;8.226;2022-07-23T00:00:46;22.90;99.90
13697;DHT22;6920;50.080;8.226;2022-07-23T00:03:14;22.90;99.90
13697;DHT22;6920;50.080;8.226;2022-07-23T00:05:43;22.80;99.90
13697;DHT22;6920;50.080;8.226;2022-07-23T00:08:12;22.70;99.90
13697;DHT22;6920;50.080;8.226;2022-07-23T00:10:40;22.80;99.90
13697;DHT22;6920;50.080;8.226;2022-07-23T00:13:08;22.70;99.90
13697;DHT22;6920;50.080;8.226;2022-07-23T00:15:35;22.60;99.90
13697;DHT22;6920;50.080;8.226;2022-07-23T00:18:03;22.60;99.90
13697;DHT22;6920;50.080;8.226;2022-07-23T00:20:31;22.50;99.90
13697;DHT22;6920;50.080;8.226;2022-07-23T00:23:00;22.50;99.90
13697;DHT22;6920;50.080;8.226;2022-07-23T00:25:27;22.40;99.90
13697;DHT22;6920;50.080;8.226;2022-07-23T00:27:54;22.40;99.90
13697;DHT22;6920;50.080;8.226;2022-07-23T00:30:23;22.40;99.90
13697;DHT22;6920;50.080;8.226;2022-07-23T00:32:55;22.30;99.90
13697;DHT22;6920;50.080;8.226;2022-07-23T00:35:30;22.30;99.90
13697;DHT22;6920;50.080;8.226;2022-07-23T00:37:58;22.30;99.90
13697;DHT22;6920;50.080;8.226;2022-07-23T00:40:26;22.20;99.90
13697;DHT22;6920;50.080;8.226;2022-07-23T00:42:55;22.10;99.90
13697;DHT22;6920;50.080;8.226;2022-07-23T00:45:22;22.10;99.90
13697;DHT22;6920;50.080;8.226;2022-07-23T00:47:50;22.10;99.90
13697;DHT22;6920;50.080;8.226;2022-07-23T00:50:17;22.10;99.90
13697;DHT22;6920;50.080;8.226;2022-07-23T00:52:47;22.10;99.90
13697;DHT22;6920;50.080;8.226;2022-07-23T00:55:14;22.00;99.90
13697;DHT22;6920;50.080;8.226;2022-07-23T00:57:42;22.10;99.90
13697;DHT22;6920;50.080;8.226;2022-07-23T01:00:12;22.00;99.90
13697;DHT22;6920;50.080;8.226;2022-07-23T01:02:41;22.00;99.90
13697;DHT22;6920;50.080;8.226;2022-07-23T01:05:09;21.90;99.90
13697;DHT22;6920;50.080;8.226;2022-07-23T01:07:37;21.90;99.90
13697;DHT22;6920;50.080;8.226;2022-07-23T01:10:11;21.90;99.90
13697;DHT22;6920;50.080;8.226;2022-07-23T01:12:58;22.00;99.90
13697;DHT22;6920;50.080;8.226;2022-07-23T01:15:27;21.90;99.90
13697;DHT22;6920;50.080;8.226;2022-07-23T01:17:57;21.80;99.90
13697;DHT22;6920;50.080;8.226;2022-07-23T01:20:25;21.70;99.90
13697;DHT22;6920;50.080;8.226;2022-07-23T01:22:57;21.70;99.90
13697;DHT22;6920;50.080;8.226;2022-07-23T01:25:25;21.70;99.90
13697;DHT22;6920;50.080;8.226;2022-07-23T01:27:53;21.50;99.90
13697;DHT22;6920;50.080;8.226;2022-07-23T01:30:23;21.40;99.90
13697;DHT22;6920;50.080;8.226;2022-07-23T01:32:52;21.40;99.90
13697;DHT22;6920;50.080;8.226;2022-07-23T01:35:21;21.40;99.90
13697;DHT22;6920;50.080;8.226;2022-07-23T01:40:16;21.30;99.90
13697;DHT22;6920;50.080;8.226;2022-07-23T01:42:44;21.40;99.90
13697;DHT22;6920;50.080;8.226;2022-07-23T01:45:12;21.30;99.90
13697;DHT22;6920;50.080;8.226;2022-07-23T01:47:46;21.10;99.90
13697;DHT22;6920;50.080;8.226;2022-07-23T01:50:14;21.00;99.90
13697;DHT22;6920;50.080;8.226;2022-07-23T01:52:42;20.90;99.90
13697;DHT22;6920;50.080;8.226;2022-07-23T01:55:10;20.90;99.90
13697;DHT22;6920;50.080;8.226;2022-07-23T01:57:41;20.90;99.90
13697;DHT22;6920;50.080;8.226;2022-07-23T02:00:09;20.90;99.90
13697;DHT22;6920;50.080;8.226;2022-07-23T02:05:05;20.80;99.90
13697;DHT22;6920;50.080;8.226;2022-07-23T02:07:32;20.70;99.90
13697;DHT22;6920;50.080;8.226;2022-07-23T02:12:27;20.80;99.90
13697;DHT22;6920;50.080;8.226;2022-07-23T02:14:57;20.70;99.90
13697;DHT22;6920;50.080;8.226;2022-07-23T02:17:27;20.60;99.90
13697;DHT22;6920;50.080;8.226;2022-07-23T02:19:54;20.70;99.90
13697;DHT22;6920;50.080;8.226;2022-07-23T02:22:21;20.70;99.90
13697;DHT22;6920;50.080;8.226;2022-07-23T02:24:49;20.70;99.90
13697;DHT22;6920;50.080;8.226;2022-07-23T02:27:17;20.70;99.90
13697;DHT22;6920;50.080;8.226;2022-07-23T02:29:48;20.80;99.90
13697;DHT22;6920;50.080;8.226;2022-07-23T02:32:16;20.70;99.90
13697;DHT22;6920;50.080;8.226;2022-07-23T02:34:44;20.70;99.90
13697;DHT22;6920;50.080;8.226;2022-07-23T02:37:11;20.70;99.90
13697;DHT22;6920;50.080;8.226;2022-07-23T02:39:39;20.60;99.90
13697;DHT22;6920;50.080;8.226;2022-07-23T02:42:09;20.60;99.90
13697;DHT22;6920;50.080;8.226;2022-07-23T02:44:36;20.50;99.90
13697;DHT22;6920;50.080;8.226;2022-07-23T02:47:05;20.50;99.90
13697;DHT22;6920;50.080;8.226;2022-07-23T02:49:34;20.50;99.90
13697;DHT22;6920;50.080;8.226;2022-07-23T02:52:02;20.40;99.90
13697;DHT22;6920;50.080;8.226;2022-07-23T02:54:30;20.40;99.90
13697;DHT22;6920;50.080;8.226;2022-07-23T02:56:57;20.40;99.90
13697;DHT22;6920;50.080;8.226;2022-07-23T02:59:25;20.50;99.90
13697;DHT22;6920;50.080;8.226;2022-07-23T03:01:53;20.50;99.90
13697;DHT22;6920;50.080;8.226;2022-07-23T03:04:20;20.40;99.90
13697;DHT22;6920;50.080;8.226;2022-07-23T03:06:50;20.40;99.90
13697;DHT22;6920;50.080;8.226;2022-07-23T03:09:20;20.50;99.90
13697;DHT22;6920;50.080;8.226;2022-07-23T03:11:47;20.50;99.90
13697;DHT22;6920;50.080;8.226;2022-07-23T03:14:14;20.60;99.90
13697;DHT22;6920;50.080;8.226;2022-07-23T03:16:43;20.60;99.90
13697;DHT22;6920;50.080;8.226;2022-07-23T03:19:11;20.60;99.90
13697;DHT22;6920;50.080;8.226;2022-07-23T03:21:39;20.60;99.90
13697;DHT22;6920;50.080;8.226;2022-07-23T03:24:10;20.60;99.90
13697;DHT22;6920;50.080;8.226;2022-07-23T03:26:38;20.50;99.90
13697;DHT22;6920;50.080;8.226;2022-07-23T03:29:08;20.40;99.90
13697;DHT22;6920;50.080;8.226;2022-07-23T03:31:35;20.50;99.90
13697;DHT22;6920;50.080;8.226;2022-07-23T03:34:02;20.40;99.90
13697;DHT22;6920;50.080;8.226;2022-07-23T03:36:29;20.50;99.90
13697;DHT22;6920;50.080;8.226;2022-07-23T03:38:56;20.50;99.90
13697;DHT22;6920;50.080;8.226;2022-07-23T03:41:25;20.40;99.90
13697;DHT22;6920;50.080;8.226;2022-07-23T03:43:54;20.40;99.90
13697;DHT22;6920;50.080;8.226;2022-07-23T03:46:21;20.40;99.90
13697;DHT22;6920;50.080;8.226;2022-07-23T03:48:51;20.40;99.90
13697;DHT22;6920;50.080;8.226;2022-07-23T03:51:20;20.40;99.90
13697;DHT22;6920;50.080;8.226;2022-07-23T03:53:48;20.40;99.90
13697;DHT22;6920;50.080;8.226;2022-07-23T03:56:15;20.40;99.90
13697;DHT22;6920;50.080;8.226;2022-07-23T03:58:47;20.30;99.90
13697;DHT22;6920;50.080;8.226;2022-07-23T04:01:15;20.20;99.90
13697;DHT22;6920;50.080;8.226;2022-07-23T04:03:42;20.10;99.90
13697;DHT22;6920;50.080;8.226;2022-07-23T04:06:09;20.10;99.90
13697;DHT22;6920;50.080;8.226;2022-07-23T04:08:37;20.10;99.90
13697;DHT22;6920;50.080;8.226;2022-07-23T04:11:05;20.00;99.90
13697;DHT22;6920;50.080;8.226;2022-07-23T04:16:03;20.00;99.90
13697;DHT22;6920;50.080;8.226;2022-07-23T04:18:32;20.00;99.90
13697;DHT22;6920;50.080;8.226;2022-07-23T04:21:00;20.10;99.90
13697;DHT22;6920;50.080;8.226;2022-07-23T04:23:28;20.00;99.90
13697;DHT22;6920;50.080;8.226;2022-07-23T04:25:56;20.10;99.90
13697;DHT22;6920;50.080;8.226;2022-07-23T04:28:23;20.10;99.90
13697;DHT22;6920;50.080;8.226;2022-07-23T04:30:51;20.00;99.90
13697;DHT22;6920;50.080;8.226;2022-07-23T04:33:20;20.00;99.90
13697;DHT22;6920;50.080;8.226;2022-07-23T04:35:48;20.00;99.90
13697;DHT22;6920;50.080;8.226;2022-07-23T04:38:17;20.20;99.90
13697;DHT22;6920;50.080;8.226;2022-07-23T04:40:45;20.30;99.90
13697;DHT22;6920;50.080;8.226;2022-07-23T04:43:14;20.30;99.90
13697;DHT22;6920;50.080;8.226;2022-07-23T04:45:42;20.40;99.90
13697;DHT22;6920;50.080;8.226;2022-07-23T04:50:37;20.40;99.90
13697;DHT22;6920;50.080;8.226;2022-07-23T04:55:31;20.50;99.90
13697;DHT22;6920;50.080;8.226;2022-07-23T04:57:59;20.40;99.90
13697;DHT22;6920;50.080;8.226;2022-07-23T05:00:28;20.40;99.90
13697;DHT22;6920;50.080;8.226;2022-07-23T05:02:56;20.40;99.90
13697;DHT22;6920;50.080;8.226;2022-07-23T05:05:25;20.40;99.90
13697;DHT22;6920;50.080;8.226;2022-07-23T05:07:54;20.60;99.90
13697;DHT22;6920;50.080;8.226;2022-07-23T05:10:24;20.40;99.90
13697;DHT22;6920;50.080;8.226;2022-07-23T05:12:53;20.40;99.90
13697;DHT22;6920;50.080;8.226;2022-07-23T05:15:21;20.50;99.90
13697;DHT22;6920;50.080;8.226;2022-07-23T05:17:49;20.50;99.90
13697;DHT22;6920;50.080;8.226;2022-07-23T05:20:16;20.60;99.90
13697;DHT22;6920;50.080;8.226;2022-07-23T05:22:43;20.60;99.90
13697;DHT22;6920;50.080;8.226;2022-07-23T05:25:16;20.50;99.90
13697;DHT22;6920;50.080;8.226;2022-07-23T05:30:11;20.70;99.90
13697;DHT22;6920;50.080;8.226;2022-07-23T05:32:38;20.60;99.90
13697;DHT22;6920;50.080;8.226;2022-07-23T05:35:06;20.60;99.90
13697;DHT22;6920;50.080;8.226;2022-07-23T05:37:33;20.80;99.90
13697;DHT22;6920;50.080;8.226;2022-07-23T05:40:02;20.90;99.90
13697;DHT22;6920;50.080;8.226;2022-07-23T05:42:35;20.80;99.90
13697;DHT22;6920;50.080;8.226;2022-07-23T05:45:07;20.90;99.90
13697;DHT22;6920;50.080;8.226;2022-07-23T05:47:40;21.00;99.90
13697;DHT22;6920;50.080;8.226;2022-07-23T05:50:08;21.00;99.90
13697;DHT22;6920;50.080;8.226;2022-07-23T05:52:36;21.00;99.90
13697;DHT22;6920;50.080;8.226;2022-07-23T05:55:06;20.90;99.90
13697;DHT22;6920;50.080;8.226;2022-07-23T05:57:35;21.10;99.90
13697;DHT22;6920;50.080;8.226;2022-07-23T06:00:05;21.20;99.90
13697;DHT22;6920;50.080;8.226;2022-07-23T06:02:33;21.20;99.90
13697;DHT22;6920;50.080;8.226;2022-07-23T06:05:00;21.30;99.90
13697;DHT22;6920;50.080;8.226;2022-07-23T06:07:28;21.30;99.90
13697;DHT22;6920;50.080;8.226;2022-07-23T06:09:55;21.50;99.90
13697;DHT22;6920;50.080;8.226;2022-07-23T06:12:23;21.50;99.90
13697;DHT22;6920;50.080;8.226;2022-07-23T06:14:52;21.60;99.90
13697;DHT22;6920;50.080;8.226;2022-07-23T06:17:21;21.90;99.90
13697;DHT22;6920;50.080;8.226;2022-07-23T06:19:49;21.80;99.90
13697;DHT22;6920;50.080;8.226;2022-07-23T06:22:17;21.90;99.90
13697;DHT22;6920;50.080;8.226;2022-07-23T06:24:44;21.80;99.90
13697;DHT22;6920;50.080;8.226;2022-07-23T06:27:12;22.10;99.90
13697;DHT22;6920;50.080;8.226;2022-07-23T06:29:40;22.30;99.90
13697;DHT22;6920;50.080;8.226;2022-07-23T06:32:11;22.30;99.90
13697;DHT22;6920;50.080;8.226;2022-07-23T06:34:38;22.50;99.90
13697;DHT22;6920;50.080;8.226;2022-07-23T06:37:05;23.10;99.90
13697;DHT22;6920;50.080;8.226;2022-07-23T06:39:32;23.60;99.90
13697;DHT22;6920;50.080;8.226;2022-07-23T06:41:59;23.90;99.90
13697;DHT22;6920;50.080;8.226;2022-07-23T06:44:26;23.80;99.90
13697;DHT22;6920;50.080;8.226;2022-07-23T06:46:54;23.80;99.90
13697;DHT22;6920;50.080;8.226;2022-07-23T06:49:24;24.00;99.90
13697;DHT22;6920;50.080;8.226;2022-07-23T06:51:51;24.10;99.90
13697;DHT22;6920;50.080;8.226;2022-07-23T06:56:45;23.60;99.90
13697;DHT22;6920;50.080;8.226;2022-07-23T06:59:17;23.70;99.90
13697;DHT22;6920;50.080;8.226;2022-07-23T07:01:44;23.70;99.90
13697;DHT22;6920;50.080;8.226;2022-07-23T07:04:11;24.10;99.90
13697;DHT22;6920;50.080;8.226;2022-07-23T07:06:39;24.30;99.90
13697;DHT22;6920;50.080;8.226;2022-07-23T07:09:07;24.30;99.90
13697;DHT22;6920;50.080;8.226;2022-07-23T07:11:34;24.80;99.90
13697;DHT22;6920;50.080;8.226;2022-07-23T07:14:01;24.90;99.90
13697;DHT22;6920;50.080;8.226;2022-07-23T07:16:29;24.80;99.90
13697;DHT22;6920;50.080;8.226;2022-07-23T07:18:59;24.80;99.90
13697;DHT22;6920;50.080;8.226;2022-07-23T07:21:29;25.50;99.90
13697;DHT22;6920;50.080;8.226;2022-07-23T07:24:03;25.90;99.90
13697;DHT22;6920;50.080;8.226;2022-07-23T07:26:32;25.70;99.90
13697;DHT22;6920;50.080;8.226;2022-07-23T07:29:00;25.60;99.90
13697;DHT22;6920;50.080;8.226;2022-07-23T07:31:28;25.60;99.90
13697;DHT22;6920;50.080;8.226;2022-07-23T07:33:59;25.60;99.90
13697;DHT22;6920;50.080;8.226;2022-07-23T07:36:27;25.70;99.90
13697;DHT22;6920;50.080;8.226;2022-07-23T07:38:57;25.70;99.90
13697;DHT22;6920;50.080;8.226;2022-07-23T07:41:26;25.90;99.90
13697;DHT22;6920;50.080;8.226;2022-07-23T07:43:55;25.90;99.90
13697;DHT22;6920;50.080;8.226;2022-07-23T07:46:23;26.40;99.90
13697;DHT22;6920;50.080;8.226;2022-07-23T07:48:53;26.40;99.90
13697;DHT22;6920;50.080;8.226;2022-07-23T07:51:20;26.10;99.90
13697;DHT22;6920;50.080;8.226;2022-07-23T07:53:48;26.70;99.90
13697;DHT22;6920;50.080;8.226;2022-07-23T07:56:17;26.20;99.90
13697;DHT22;6920;50.080;8.226;2022-07-23T07:58:46;26.10;99.90
13697;DHT22;6920;50.080;8.226;2022-07-23T08:01:14;26.10;99.90
13697;DHT22;6920;50.080;8.226;2022-07-23T08:03:41;26.20;99.90
13697;DHT22;6920;50.080;8.226;2022-07-23T08:06:09;26.40;99.90
13697;DHT22;6920;50.080;8.226;2022-07-23T08:08:37;26.20;99.90
13697;DHT22;6920;50.080;8.226;2022-07-23T08:11:04;26.30;99.90
13697;DHT22;6920;50.080;8.226;2022-07-23T08:13:38;26.80;99.90
13697;DHT22;6920;50.080;8.226;2022-07-23T08:16:06;26.60;99.90
13697;DHT22;6920;50.080;8.226;2022-07-23T08:18:34;26.50;99.90
13697;DHT22;6920;50.080;8.226;2022-07-23T08:21:09;26.80;99.90
13697;DHT22;6920;50.080;8.226;2022-07-23T08:23:40;27.30;99.90
13697;DHT22;6920;50.080;8.226;2022-07-23T08:26:07;27.50;99.90
13697;DHT22;6920;50.080;8.226;2022-07-23T08:28:39;27.60;99.90
13697;DHT22;6920;50.080;8.226;2022-07-23T08:31:08;27.80;99.90
13697;DHT22;6920;50.080;8.226;2022-07-23T08:33:38;27.20;99.90
13697;DHT22;6920;50.080;8.226;2022-07-23T08:36:08;27.00;99.90
13697;DHT22;6920;50.080;8.226;2022-07-23T08:41:03;27.60;99.90
13697;DHT22;6920;50.080;8.226;2022-07-23T08:43:33;27.80;99.30
13697;DHT22;6920;50.080;8.226;2022-07-23T08:46:07;27.60;98.50
13697;DHT22;6920;50.080;8.226;2022-07-23T08:48:37;28.00;98.00
13697;DHT22;6920;50.080;8.226;2022-07-23T08:51:08;28.10;97.50
13697;DHT22;6920;50.080;8.226;2022-07-23T08:53:39;28.60;97.00
13697;DHT22;6920;50.080;8.226;2022-07-23T08:58:38;28.50;97.20
13697;DHT22;6920;50.080;8.226;2022-07-23T09:01:07;28.20;97.40
13697;DHT22;6920;50.080;8.226;2022-07-23T09:03:38;28.30;97.90
13697;DHT22;6920;50.080;8.226;2022-07-23T09:06:07;28.60;98.20
13697;DHT22;6920;50.080;8.226;2022-07-23T09:08:37;28.70;97.90
13697;DHT22;6920;50.080;8.226;2022-07-23T09:11:07;28.20;98.30
13697;DHT22;6920;50.080;8.226;2022-07-23T09:13:41;28.20;97.70
13697;DHT22;6920;50.080;8.226;2022-07-23T09:16:17;28.60;98.20
13697;DHT22;6920;50.080;8.226;2022-07-23T09:18:48;28.50;97.90
13697;DHT22;6920;50.080;8.226;2022-07-23T09:21:22;28.80;98.00
13697;DHT22;6920;50.080;8.226;2022-07-23T09:23:55;29.00;98.30
13697;DHT22;6920;50.080;8.226;2022-07-23T09:26:34;28.20;98.80
13697;DHT22;6920;50.080;8.226;2022-07-23T09:29:07;27.80;99.90
13697;DHT22;6920;50.080;8.226;2022-07-23T09:31:49;27.40;99.80
13697;DHT22;6920;50.080;8.226;2022-07-23T09:34:19;27.80;99.50
13697;DHT22;6920;50.080;8.226;2022-07-23T09:36:50;27.60;99.80
13697;DHT22;6920;50.080;8.226;2022-07-23T09:39:25;27.40;99.90
13697;DHT22;6920;50.080;8.226;2022-07-23T09:41:57;27.70;99.90
13697;DHT22;6920;50.080;8.226;2022-07-23T09:44:25;28.60;99.20
13697;DHT22;6920;50.080;8.226;2022-07-23T09:46:59;29.10;98.40
13697;DHT22;6920;50.080;8.226;2022-07-23T09:49:28;28.90;98.70
13697;DHT22;6920;50.080;8.226;2022-07-23T09:51:57;28.80;98.60
13697;DHT22;6920;50.080;8.226;2022-07-23T09:54:30;28.80;98.40
13697;DHT22;6920;50.080;8.226;2022-07-23T09:56:59;28.80;98.70
13697;DHT22;6920;50.080;8.226;2022-07-23T09:59:29;28.50;98.30
13697;DHT22;6920;50.080;8.226;2022-07-23T10:01:59;29.10;98.20
13697;DHT22;6920;50.080;8.226;2022-07-23T10:04:28;29.90;96.70
13697;DHT22;6920;50.080;8.226;2022-07-23T10:06:58;29.70;96.60
13697;DHT22;6920;50.080;8.226;2022-07-23T10:09:29;30.10;95.60
13697;DHT22;6920;50.080;8.226;2022-07-23T10:11:59;29.70;95.80
13697;DHT22;6920;50.080;8.226;2022-07-23T10:14:42;29.70;95.90
13697;DHT22;6920;50.080;8.226;2022-07-23T10:17:11;29.30;95.10
13697;DHT22;6920;50.080;8.226;2022-07-23T10:19:40;29.60;94.30
13697;DHT22;6920;50.080;8.226;2022-07-23T10:22:12;30.00;95.20
13697;DHT22;6920;50.080;8.226;2022-07-23T10:25:00;30.40;94.10
13697;DHT22;6920;50.080;8.226;2022-07-23T10:27:58;30.10;93.80
13697;DHT22;6920;50.080;8.226;2022-07-23T10:30:41;29.70;94.30
13697;DHT22;6920;50.080;8.226;2022-07-23T10:33:40;30.10;94.40
13697;DHT22;6920;50.080;8.226;2022-07-23T10:36:16;30.00;94.20
13697;DHT22;6920;50.080;8.226;2022-07-23T10:38:53;30.20;94.10
13697;DHT22;6920;50.080;8.226;2022-07-23T10:41:33;30.00;94.20
13697;DHT22;6920;50.080;8.226;2022-07-23T10:44:09;29.90;94.70
13697;DHT22;6920;50.080;8.226;2022-07-23T10:46:54;30.40;94.20
13697;DHT22;6920;50.080;8.226;2022-07-23T10:49:29;30.70;94.10
13697;DHT22;6920;50.080;8.226;2022-07-23T10:52:20;31.10;92.90
13697;DHT22;6920;50.080;8.226;2022-07-23T10:54:49;31.20;93.00
13697;DHT22;6920;50.080;8.226;2022-07-23T10:57:19;30.90;92.40
13697;DHT22;6920;50.080;8.226;2022-07-23T11:00:16;31.10;93.30
13697;DHT22;6920;50.080;8.226;2022-07-23T11:02:51;30.10;92.90
13697;DHT22;6920;50.080;8.226;2022-07-23T11:05:24;29.40;93.80
13697;DHT22;6920;50.080;8.226;2022-07-23T11:08:14;29.60;93.40
13697;DHT22;6920;50.080;8.226;2022-07-23T11:10:47;30.20;93.10
13697;DHT22;6920;50.080;8.226;2022-07-23T11:13:32;29.90;93.20
13697;DHT22;6920;50.080;8.226;2022-07-23T11:16:24;29.60;93.50
13697;DHT22;6920;50.080;8.226;2022-07-23T11:19:15;30.00;93.10
13697;DHT22;6920;50.080;8.226;2022-07-23T11:21:50;30.60;93.00
13697;DHT22;6920;50.080;8.226;2022-07-23T11:24:21;30.80;92.40
13697;DHT22;6920;50.080;8.226;2022-07-23T11:26:54;31.30;92.90
13697;DHT22;6920;50.080;8.226;2022-07-23T11:29:47;31.10;92.60
13697;DHT22;6920;50.080;8.226;2022-07-23T11:32:28;31.20;93.00
13697;DHT22;6920;50.080;8.226;2022-07-23T11:34:55;30.50;92.80
13697;DHT22;6920;50.080;8.226;2022-07-23T11:37:40;29.80;93.80
13697;DHT22;6920;50.080;8.226;2022-07-23T11:40:10;29.80;94.00
13697;DHT22;6920;50.080;8.226;2022-07-23T11:42:39;30.70;93.50
13697;DHT22;6920;50.080;8.226;2022-07-23T11:45:08;30.70;92.80
13697;DHT22;6920;50.080;8.226;2022-07-23T11:47:38;31.00;92.90
13697;DHT22;6920;50.080;8.226;2022-07-23T11:50:06;31.20;92.90
13697;DHT22;6920;50.080;8.226;2022-07-23T11:52:35;31.20;93.20
13697;DHT22;6920;50.080;8.226;2022-07-23T11:55:04;30.30;93.20
13697;DHT22;6920;50.080;8.226;2022-07-23T11:57:35;29.80;93.90
13697;DHT22;6920;50.080;8.226;2022-07-23T12:00:07;29.70;94.00
13697;DHT22;6920;50.080;8.226;2022-07-23T12:02:36;29.30;94.70
13697;DHT22;6920;50.080;8.226;2022-07-23T12:05:05;29.60;94.60
13697;DHT22;6920;50.080;8.226;2022-07-23T12:07:36;29.20;94.90
13697;DHT22;6920;50.080;8.226;2022-07-23T12:10:09;29.90;94.70
13697;DHT22;6920;50.080;8.226;2022-07-23T12:12:38;30.50;94.20
13697;DHT22;6920;50.080;8.226;2022-07-23T12:15:09;30.70;93.70
13697;DHT22;6920;50.080;8.226;2022-07-23T12:17:38;30.90;93.20
13697;DHT22;6920;50.080;8.226;2022-07-23T12:20:14;31.50;92.90
13697;DHT22;6920;50.080;8.226;2022-07-23T12:22:46;31.30;92.80
13697;DHT22;6920;50.080;8.226;2022-07-23T12:25:18;31.00;92.90
13697;DHT22;6920;50.080;8.226;2022-07-23T12:27:58;30.60;93.40
13697;DHT22;6920;50.080;8.226;2022-07-23T12:30:30;30.60;93.50
13697;DHT22;6920;50.080;8.226;2022-07-23T12:33:02;30.70;92.80
13697;DHT22;6920;50.080;8.226;2022-07-23T12:35:34;31.10;92.90
13697;DHT22;6920;50.080;8.226;2022-07-23T12:38:05;30.80;92.20
13697;DHT22;6920;50.080;8.226;2022-07-23T12:40:35;30.60;92.40
13697;DHT22;6920;50.080;8.226;2022-07-23T12:43:06;30.20;92.90
13697;DHT22;6920;50.080;8.226;2022-07-23T12:45:45;29.70;93.40
13697;DHT22;6920;50.080;8.226;2022-07-23T12:48:22;29.60;93.50
13697;DHT22;6920;50.080;8.226;2022-07-23T12:50:53;29.50;93.70
13697;DHT22;6920;50.080;8.226;2022-07-23T12:53:25;29.90;93.10
13697;DHT22;6920;50.080;8.226;2022-07-23T12:55:59;29.90;92.70
13697;DHT22;6920;50.080;8.226;2022-07-23T12:58:40;30.30;92.80
13697;DHT22;6920;50.080;8.226;2022-07-23T13:01:08;30.50;91.70
13697;DHT22;6920;50.080;8.226;2022-07-23T13:03:37;30.30;91.90
13697;DHT22;6920;50.080;8.226;2022-07-23T13:06:06;31.00;92.10
13697;DHT22;6920;50.080;8.226;2022-07-23T13:08:36;31.20;92.00
13697;DHT22;6920;50.080;8.226;2022-07-23T13:11:05;31.10;91.80
13697;DHT22;6920;50.080;8.226;2022-07-23T13:13:36;30.70;91.90
13697;DHT22;6920;50.080;8.226;2022-07-23T13:16:04;30.70;92.10
13697;DHT22;6920;50.080;8.226;2022-07-23T13:18:31;30.50;90.80
13697;DHT22;6920;50.080;8.226;2022-07-23T13:21:00;30.60;91.20
13697;DHT22;6920;50.080;8.226;2022-07-23T13:23:27;30.30;91.50
13697;DHT22;6920;50.080;8.226;2022-07-23T13:25:55;30.00;92.20
13697;DHT22;6920;50.080;8.226;2022-07-23T13:28:24;29.90;91.60
13697;DHT22;6920;50.080;8.226;2022-07-23T13:30:52;29.60;91.70
13697;DHT22;6920;50.080;8.226;2022-07-23T13:33:23;30.10;92.00
13697;DHT22;6920;50.080;8.226;2022-07-23T13:35:53;29.80;92.20
13697;DHT22;6920;50.080;8.226;2022-07-23T13:38:21;29.70;92.30
13697;DHT22;6920;50.080;8.226;2022-07-23T13:40:50;30.10;92.20
13697;DHT22;6920;50.080;8.226;2022-07-23T13:43:25;30.20;91.40
13697;DHT22;6920;50.080;8.226;2022-07-23T13:45:53;30.10;91.80
13697;DHT22;6920;50.080;8.226;2022-07-23T13:48:22;29.70;91.90
13697;DHT22;6920;50.080;8.226;2022-07-23T13:50:49;29.40;92.20
13697;DHT22;6920;50.080;8.226;2022-07-23T13:53:18;29.60;92.20
13697;DHT22;6920;50.080;8.226;2022-07-23T13:55:50;29.90;92.00
13697;DHT22;6920;50.080;8.226;2022-07-23T13:58:25;30.40;91.70
13697;DHT22;6920;50.080;8.226;2022-07-23T14:03:22;30.10;91.40
13697;DHT22;6920;50.080;8.226;2022-07-23T14:05:51;30.20;90.80
13697;DHT22;6920;50.080;8.226;2022-07-23T14:08:20;30.30;91.70
13697;DHT22;6920;50.080;8.226;2022-07-23T14:10:49;30.30;90.80
13697;DHT22;6920;50.080;8.226;2022-07-23T14:13:16;30.40;90.50
13697;DHT22;6920;50.080;8.226;2022-07-23T14:15:46;29.90;90.40
13697;DHT22;6920;50.080;8.226;2022-07-23T14:18:13;30.60;90.20
13697;DHT22;6920;50.080;8.226;2022-07-23T14:20:41;30.50;89.10
13697;DHT22;6920;50.080;8.226;2022-07-23T14:23:08;30.70;89.50
13697;DHT22;6920;50.080;8.226;2022-07-23T14:25:36;30.90;90.00
13697;DHT22;6920;50.080;8.226;2022-07-23T14:28:04;31.20;88.50
13697;DHT22;6920;50.080;8.226;2022-07-23T14:30:34;30.80;89.10
13697;DHT22;6920;50.080;8.226;2022-07-23T14:33:03;30.90;88.60
13697;DHT22;6920;50.080;8.226;2022-07-23T14:35:34;30.90;88.90
13697;DHT22;6920;50.080;8.226;2022-07-23T14:38:02;30.90;88.40
13697;DHT22;6920;50.080;8.226;2022-07-23T14:42:59;30.40;86.90
13697;DHT22;6920;50.080;8.226;2022-07-23T14:45:26;30.60;86.50
13697;DHT22;6920;50.080;8.226;2022-07-23T14:50:25;31.00;85.50
13697;DHT22;6920;50.080;8.226;2022-07-23T14:52:53;31.00;84.10
13697;DHT22;6920;50.080;8.226;2022-07-23T14:55:22;31.40;85.00
13697;DHT22;6920;50.080;8.226;2022-07-23T14:57:50;31.50;82.50
13697;DHT22;6920;50.080;8.226;2022-07-23T15:00:20;30.90;80.80
13697;DHT22;6920;50.080;8.226;2022-07-23T15:02:47;30.70;83.40
13697;DHT22;6920;50.080;8.226;2022-07-23T15:05:16;30.90;83.00
13697;DHT22;6920;50.080;8.226;2022-07-23T15:07:47;30.90;82.00
13697;DHT22;6920;50.080;8.226;2022-07-23T15:10:15;30.90;82.70
13697;DHT22;6920;50.080;8.226;2022-07-23T15:12:42;30.80;83.00
13697;DHT22;6920;50.080;8.226;2022-07-23T15:15:12;30.80;83.50
13697;DHT22;6920;50.080;8.226;2022-07-23T15:17:39;31.00;83.10
13697;DHT22;6920;50.080;8.226;2022-07-23T15:20:07;31.00;83.10
13697;DHT22;6920;50.080;8.226;2022-07-23T15:22:36;31.30;82.40
13697;DHT22;6920;50.080;8.226;2022-07-23T15:25:07;31.10;82.00
13697;DHT22;6920;50.080;8.226;2022-07-23T15:27:36;31.10;82.90
13697;DHT22;6920;50.080;8.226;2022-07-23T15:30:06;31.10;81.90
13697;DHT22;6920;50.080;8.226;2022-07-23T15:32:33;31.10;81.50
13697;DHT22;6920;50.080;8.226;2022-07-23T15:35:00;30.70;81.50
13697;DHT22;6920;50.080;8.226;2022-07-23T15:37:30;30.90;81.50
13697;DHT22;6920;50.080;8.226;2022-07-23T15:39:59;30.60;82.40
13697;DHT22;6920;50.080;8.226;2022-07-23T15:42:27;30.50;83.80
13697;DHT22;6920;50.080;8.226;2022-07-23T15:44:55;30.40;83.20
13697;DHT22;6920;50.080;8.226;2022-07-23T15:47:23;30.40;83.00
13697;DHT22;6920;50.080;8.226;2022-07-23T15:49:52;30.20;82.90
13697;DHT22;6920;50.080;8.226;2022-07-23T15:52:19;29.90;85.70
13697;DHT22;6920;50.080;8.226;2022-07-23T15:54:48;29.90;84.90
13697;DHT22;6920;50.080;8.226;2022-07-23T15:57:16;30.20;85.60
13697;DHT22;6920;50.080;8.226;2022-07-23T15:59:52;30.00;85.90
13697;DHT22;6920;50.080;8.226;2022-07-23T16:02:23;29.90;86.30
13697;DHT22;6920;50.080;8.226;2022-07-23T16:04:52;29.70;86.50
13697;DHT22;6920;50.080;8.226;2022-07-23T16:07:19;29.70;87.70
13697;DHT22;6920;50.080;8.226;2022-07-23T16:09:46;29.70;87.30
13697;DHT22;6920;50.080;8.226;2022-07-23T16:14:42;29.50;86.60
13697;DHT22;6920;50.080;8.226;2022-07-23T16:17:08;29.40;86.40
13697;DHT22;6920;50.080;8.226;2022-07-23T16:22:10;29.40;86.00
13697;DHT22;6920;50.080;8.226;2022-07-23T16:24:42;29.50;85.90
13697;DHT22;6920;50.080;8.226;2022-07-23T16:27:12;29.40;85.90
13697;DHT22;6920;50.080;8.226;2022-07-23T16:29:40;29.40;86.40
13697;DHT22;6920;50.080;8.226;2022-07-23T16:32:07;29.40;84.30
13697;DHT22;6920;50.080;8.226;2022-07-23T16:34:37;29.50;84.40
13697;DHT22;6920;50.080;8.226;2022-07-23T16:37:12;29.60;84.70
13697;DHT22;6920;50.080;8.226;2022-07-23T16:39:41;29.40;84.80